Shaw, Missouri
Current Conditions -  °F | °C
As of 6:54 AM on Tuesday 21 Oct 2014 (Local Time) from KCOU Reporting Station
Clear Clear  
Wind Chill: 43°   Ceiling: Unl
Heat Index: 46°   Visibility: 10mi
Dew Point: 42°   Wind: 6mph
Humidity: 86%   Direction: 330°NNW
Pressure: 30.11"   Gusts: NA
Location:  39.0235°N, 92.2896°W
Report Text: KCOU 211154Z 33005KT 10SM CLR 08/06 A3011 RMK AO2 SLP194 T00780056 10117 20067 53015
Loading
Personal Weather Stations






























Interactive Weather Map
Tropical Storm Tracking
New forecast layout! Learn more

10-Day Weather Forecast

Advertisements
Track Severe Weather on mobile